Time;durP1;ratioP1;P1;durP2;ratioP2;P2;SDS_P1;SDS_P2;PMS_P1;PMS_P2;Temp;Humidity;BMP_temperature;BMP_pressure;BME280_temperature;BME280_humidity;BME280_pressure;Samples;Min_cycle;Max_cycle;Signal;HPM_P1;HPM_P2
2021/05/10 00:02:16;;;;;;;6.43;1.77;;;;;;;20.87;46.83;99706.66;5016913;28;20100;-68
2021/05/10 00:04:42;;;;;;;3.60;1.13;;;;;;;20.83;46.76;99703.44;5020446;28;20050;-67
2021/05/10 00:07:09;;;;;;;5.00;1.50;;;;;;;20.78;47.18;99717.00;5020807;28;20060;-69
2021/05/10 00:09:36;;;;;;;3.90;1.23;;;;;;;20.79;47.49;99723.13;5019598;28;20057;-69
2021/05/10 00:12:01;;;;;;;7.50;1.48;;;;;;;20.78;47.50;99722.31;5020113;28;20056;-67
2021/05/10 00:14:39;;;;;;;5.20;1.17;;;;;;;20.71;48.42;99715.78;5025349;28;20053;-68
2021/05/10 00:17:05;;;;;;;5.90;1.55;;;;;;;20.73;50.35;99723.59;5019966;28;20077;-69
2021/05/10 00:19:31;;;;;;;6.43;1.60;;;;;;;20.62;50.98;99727.91;5024112;28;20108;-67
2021/05/10 00:21:57;;;;;;;8.50;1.50;;;;;;;20.51;51.58;99717.31;5016747;28;20376;-67
2021/05/10 00:24:23;;;;;;;5.85;1.25;;;;;;;20.40;53.28;99709.38;5027301;28;20049;-67
2021/05/10 00:26:50;;;;;;;6.07;1.48;;;;;;;20.35;53.45;99709.75;5023722;28;20127;-67
2021/05/10 00:29:18;;;;;;;7.72;1.60;;;;;;;20.29;53.66;99697.84;5022313;28;20106;-68
2021/05/10 00:31:44;;;;;;;6.40;1.38;;;;;;;20.21;54.21;99688.84;5021157;28;20056;-67
2021/05/10 00:34:10;;;;;;;5.47;1.30;;;;;;;20.18;53.84;99690.75;5018736;28;20057;-68
2021/05/10 00:36:36;;;;;;;8.07;1.60;;;;;;;20.15;55.31;99682.25;5025010;28;20057;-67
2021/05/10 00:39:03;;;;;;;4.85;1.33;;;;;;;20.11;54.40;99686.91;5019903;28;20045;-67
2021/05/10 00:41:29;;;;;;;6.65;1.40;;;;;;;20.15;54.50;99677.78;5023227;28;20042;-68
2021/05/10 00:43:56;;;;;;;5.88;1.58;;;;;;;20.12;53.92;99693.03;5024122;28;20561;-67
2021/05/10 00:46:21;;;;;;;4.03;1.15;;;;;;;20.08;54.90;99695.06;5024156;28;20054;-67
2021/05/10 00:48:47;;;;;;;6.45;2.05;;;;;;;20.12;54.06;99688.56;5025263;28;20392;-68
2021/05/10 00:51:13;;;;;;;6.90;1.30;;;;;;;20.08;54.64;99681.00;5031596;28;20485;-68
2021/05/10 00:53:39;;;;;;;6.88;1.85;;;;;;;20.07;54.58;99668.75;5029144;28;20065;-67
2021/05/10 00:56:06;;;;;;;5.93;1.40;;;;;;;20.04;54.51;99665.41;5025201;28;20054;-67
2021/05/10 00:58:32;;;;;;;4.82;1.50;;;;;;;20.03;54.99;99662.88;5023088;28;20049;-67
2021/05/10 01:00:59;;;;;;;6.63;1.60;;;;;;;20.02;55.79;99669.13;5020727;28;20065;-67
2021/05/10 01:03:26;;;;;;;4.10;1.10;;;;;;;20.04;54.51;99675.13;5016405;28;20053;-67
2021/05/10 01:05:52;;;;;;;3.55;1.20;;;;;;;19.98;53.88;99667.69;5026877;28;20415;-68
2021/05/10 01:08:18;;;;;;;5.32;1.98;;;;;;;19.99;53.42;99653.53;5020819;28;20050;-66
2021/05/10 01:10:45;;;;;;;4.80;1.67;;;;;;;19.99;53.28;99650.88;5026473;28;20111;-67
2021/05/10 01:13:11;;;;;;;6.82;1.65;;;;;;;20.05;51.76;99650.41;5032111;28;20134;-67
2021/05/10 01:15:37;;;;;;;4.20;1.65;;;;;;;20.02;52.41;99645.34;5025623;28;20054;-69
2021/05/10 01:18:04;;;;;;;8.25;1.65;;;;;;;20.00;51.73;99649.94;5023571;28;20042;-68
2021/05/10 01:20:33;;;;;;;7.05;1.48;;;;;;;20.02;51.15;99648.84;5029519;28;20056;-65
2021/05/10 01:23:00;;;;;;;2.95;1.20;;;;;;;20.03;50.55;99653.19;5027723;28;20111;-68
2021/05/10 01:25:28;;;;;;;6.28;1.58;;;;;;;19.98;50.59;99663.22;5024007;28;20057;-68
2021/05/10 01:27:55;;;;;;;5.55;1.30;;;;;;;20.06;51.02;99651.28;5021309;28;20091;-67
2021/05/10 01:30:23;;;;;;;5.80;1.45;;;;;;;20.01;49.97;99654.25;5026939;28;20415;-67
2021/05/10 01:32:51;;;;;;;5.07;1.45;;;;;;;19.98;50.92;99651.84;5021270;28;20077;-66
2021/05/10 01:35:19;;;;;;;6.28;1.60;;;;;;;20.06;50.03;99651.28;5023987;28;20100;-66
2021/05/10 01:37:45;;;;;;;4.88;1.48;;;;;;;20.04;49.72;99654.88;5022595;28;20415;-67
2021/05/10 01:40:13;;;;;;;6.95;2.13;;;;;;;20.08;49.22;99655.47;5029134;28;20502;-67
2021/05/10 01:42:39;;;;;;;3.30;1.30;;;;;;;20.04;49.50;99659.28;5032028;28;20054;-67
2021/05/10 01:45:06;;;;;;;6.28;1.33;;;;;;;20.10;49.06;99658.84;5029098;28;20057;-64
2021/05/10 01:47:33;;;;;;;3.95;1.48;;;;;;;20.10;49.17;99656.19;5021889;28;20045;-66
2021/05/10 01:49:59;;;;;;;4.72;1.50;;;;;;;20.11;49.04;99655.25;5021536;28;20057;-66
2021/05/10 01:52:25;;;;;;;9.50;1.33;;;;;;;20.18;47.38;99653.81;5022559;28;20419;-66
2021/05/10 01:54:53;;;;;;;4.40;1.55;;;;;;;20.16;47.93;99653.06;5019373;28;20052;-68
2021/05/10 01:57:21;;;;;;;6.25;1.48;;;;;;;20.20;46.13;99653.66;5029197;28;20045;-64
2021/05/10 01:59:48;;;;;;;5.65;1.60;;;;;;;20.34;45.49;99634.97;5028174;28;20073;-66
2021/05/10 02:02:14;;;;;;;6.78;1.20;;;;;;;20.38;45.41;99632.94;5020836;28;20439;-68
2021/05/10 02:05:07;;;;;;;6.50;1.83;;;;;;;20.48;46.01;99615.41;5018147;28;20562;-65
2021/05/10 02:07:33;;;;;;;6.93;1.50;;;;;;;20.53;45.25;99611.53;5026543;28;20067;-67
2021/05/10 02:10:00;;;;;;;7.32;1.10;;;;;;;20.54;44.50;99616.72;5027446;28;20049;-67
2021/05/10 02:12:27;;;;;;;6.07;1.25;;;;;;;20.53;44.30;99612.38;5026101;28;20045;-68
2021/05/10 02:14:53;;;;;;;7.05;1.45;;;;;;;20.63;43.28;99618.63;5025678;28;20046;-68
2021/05/10 02:17:19;;;;;;;3.58;1.20;;;;;;;20.68;43.90;99618.25;5016932;28;20061;-68
2021/05/10 02:19:45;;;;;;;6.25;1.48;;;;;;;20.70;43.74;99613.69;5017812;28;20049;-64
2021/05/10 02:22:11;;;;;;;4.95;1.20;;;;;;;20.71;42.86;99611.88;5021827;28;20045;-67
2021/05/10 02:24:37;;;;;;;4.22;1.23;;;;;;;20.81;42.89;99616.31;5019409;28;20057;-67
2021/05/10 02:27:04;;;;;;;5.45;1.25;;;;;;;20.81;42.52;99603.09;5023390;28;20050;-66
2021/05/10 02:29:31;;;;;;;5.40;1.08;;;;;;;20.86;42.41;99617.75;5025268;28;20681;-68
2021/05/10 02:31:57;;;;;;;3.67;1.23;;;;;;;20.78;43.31;99606.03;5026286;28;20052;-68
2021/05/10 02:34:23;;;;;;;5.32;1.10;;;;;;;20.87;42.07;99609.69;5026447;28;20411;-66
2021/05/10 02:36:50;;;;;;;5.97;1.40;;;;;;;20.87;42.10;99615.00;5017739;28;20427;-67
2021/05/10 02:39:16;;;;;;;6.38;1.55;;;;;;;20.85;41.95;99616.09;5025251;28;20060;-67
2021/05/10 02:41:42;;;;;;;5.78;1.10;;;;;;;20.86;42.57;99612.47;5017473;28;20057;-67
2021/05/10 02:44:08;;;;;;;4.88;1.10;;;;;;;20.92;41.92;99607.53;5020962;28;20053;-67
2021/05/10 02:46:35;;;;;;;8.88;1.58;;;;;;;20.85;42.24;99605.50;5026712;28;20053;-67
2021/05/10 02:49:01;;;;;;;7.13;1.52;;;;;;;20.84;42.58;99614.41;5028937;28;20049;-67
2021/05/10 02:51:27;;;;;;;6.35;1.15;;;;;;;20.95;42.04;99617.88;5023197;28;20056;-68
2021/05/10 02:53:53;;;;;;;7.75;1.30;;;;;;;20.90;42.21;99609.47;5027451;28;20045;-67
2021/05/10 02:56:19;;;;;;;6.80;1.25;;;;;;;20.83;42.69;99604.78;5018493;28;20080;-66
2021/05/10 02:58:45;;;;;;;14.32;1.30;;;;;;;20.71;43.25;99604.81;5027646;28;20095;-68
2021/05/10 03:01:10;;;;;;;8.82;1.40;;;;;;;20.67;43.80;99598.06;5022112;28;20057;-68
2021/05/10 03:03:37;;;;;;;11.32;1.50;;;;;;;20.60;44.04;99594.25;5020385;28;20094;-68
2021/05/10 03:06:04;;;;;;;14.13;2.15;;;;;;;20.57;44.63;99583.91;5019615;28;20053;-68
2021/05/10 03:08:30;;;;;;;17.73;2.17;;;;;;;20.55;44.43;99588.47;5022010;28;20480;-66
2021/05/10 03:10:55;;;;;;;7.57;1.38;;;;;;;20.55;44.20;99586.69;5025378;28;20068;-68
2021/05/10 03:13:21;;;;;;;13.32;1.83;;;;;;;20.39;44.68;99591.50;5027221;28;20491;-68
2021/05/10 03:15:47;;;;;;;11.20;1.73;;;;;;;20.30;45.13;99585.97;5020033;28;20049;-66
2021/05/10 03:18:13;;;;;;;15.15;1.73;;;;;;;20.26;45.71;99588.97;5017793;28;20092;-67
2021/05/10 03:20:40;;;;;;;10.63;1.38;;;;;;;20.18;45.50;99592.22;5020678;28;20076;-68
2021/05/10 03:23:06;;;;;;;10.27;1.50;;;;;;;20.12;45.56;99590.06;5022402;28;20045;-68
2021/05/10 03:25:32;;;;;;;9.20;1.60;;;;;;;20.08;46.32;99596.53;5024450;28;20534;-67
2021/05/10 03:27:58;;;;;;;11.27;1.50;;;;;;;20.04;46.49;99595.94;5028482;28;20057;-68
2021/05/10 03:30:25;;;;;;;8.98;1.92;;;;;;;20.04;46.95;99595.94;5022986;28;20057;-67
2021/05/10 03:32:52;;;;;;;8.48;1.88;;;;;;;19.99;46.82;99603.38;5023056;28;20049;-68
2021/05/10 03:35:20;;;;;;;8.68;1.30;;;;;;;19.97;46.43;99608.75;5026177;28;20046;-65
2021/05/10 03:37:47;;;;;;;11.13;2.03;;;;;;;19.96;46.44;99609.75;5023019;28;20045;-68
2021/05/10 03:40:17;;;;;;;11.73;1.50;;;;;;;19.92;46.71;99610.94;5018268;28;20041;-67
2021/05/10 03:42:44;;;;;;;10.27;1.90;;;;;;;19.83;47.22;99607.16;5020477;28;20053;-68
2021/05/10 03:45:11;;;;;;;11.90;1.80;;;;;;;19.91;46.57;99605.78;5016145;28;20053;-67
2021/05/10 03:47:40;;;;;;;11.52;2.33;;;;;;;19.90;46.76;99609.38;5018754;28;20426;-68
2021/05/10 03:50:08;;;;;;;10.18;1.50;;;;;;;19.93;46.14;99622.31;5019753;28;20128;-66
2021/05/10 03:52:34;;;;;;;11.13;1.58;;;;;;;19.86;47.33;99624.59;5020813;28;20079;-65
2021/05/10 03:55:01;;;;;;;6.85;1.42;;;;;;;19.95;46.60;99628.31;5024603;28;20072;-66
2021/05/10 03:57:27;;;;;;;5.70;1.48;;;;;;;19.99;46.18;99633.25;5025325;28;20041;-67
2021/05/10 03:59:53;;;;;;;11.43;1.48;;;;;;;20.04;45.79;99617.06;5023107;28;20057;-67
2021/05/10 04:02:19;;;;;;;7.40;1.08;;;;;;;20.00;45.56;99612.97;5014895;28;20048;-67
2021/05/10 04:04:49;;;;;;;4.82;1.17;;;;;;;20.07;45.19;99608.91;5022539;28;20427;-68
2021/05/10 04:15:27;;;;;;;2.55;0.88;;;;;;;20.24;46.53;99617.31;5025992;28;20057;-67
2021/05/10 04:17:53;;;;;;;8.52;1.00;;;;;;;20.19;46.62;99625.59;5025835;28;20049;-68
2021/05/10 04:20:19;;;;;;;5.20;1.15;;;;;;;20.23;46.41;99627.03;5026573;28;20080;-67
2021/05/10 04:22:45;;;;;;;4.60;1.20;;;;;;;20.19;46.51;99631.72;5030196;28;20053;-67
2021/05/10 04:25:11;;;;;;;4.05;1.13;;;;;;;20.15;46.64;99624.16;5025104;28;20419;-67
2021/05/10 04:27:37;;;;;;;4.45;1.05;;;;;;;20.18;45.92;99619.47;5027745;28;20048;-68
2021/05/10 04:30:06;;;;;;;5.95;1.60;;;;;;;20.15;46.64;99627.63;5023510;28;20088;-67
2021/05/10 04:32:32;;;;;;;4.18;1.20;;;;;;;20.18;46.40;99630.03;5022904;28;20056;-69
2021/05/10 04:34:57;;;;;;;8.52;1.73;;;;;;;20.22;46.35;99638.56;5026841;28;20049;-68
2021/05/10 04:37:23;;;;;;;7.85;1.63;;;;;;;20.23;46.25;99658.72;5027164;28;20064;-66
2021/05/10 04:39:49;;;;;;;6.18;1.35;;;;;;;20.28;46.29;99647.81;5026517;28;20053;-69
2021/05/10 04:42:15;;;;;;;3.97;1.30;;;;;;;20.22;46.24;99661.47;5022615;28;20056;-68
2021/05/10 04:44:41;;;;;;;3.72;1.15;;;;;;;20.23;46.36;99660.50;5030437;28;20106;-65
2021/05/10 04:47:08;;;;;;;4.57;1.10;;;;;;;20.21;46.80;99665.09;5029690;28;20422;-66
2021/05/10 04:49:34;;;;;;;4.05;1.13;;;;;;;20.28;46.66;99661.00;5024094;28;20046;-68
2021/05/10 04:52:00;;;;;;;7.45;1.23;;;;;;;20.28;46.63;99666.28;5025552;28;20052;-68
2021/05/10 04:54:26;;;;;;;7.97;1.20;;;;;;;20.25;46.89;99672.66;5029057;28;20041;-67
2021/05/10 04:56:52;;;;;;;6.60;1.55;;;;;;;20.27;47.21;99673.34;5031692;28;20049;-65
2021/05/10 04:59:18;;;;;;;5.93;1.30;;;;;;;20.27;46.62;99678.63;5027903;28;20392;-66
2021/05/10 05:01:44;;;;;;;3.75;1.40;;;;;;;20.29;46.55;99678.53;5028128;28;20049;-66
2021/05/10 05:04:11;;;;;;;8.75;1.20;;;;;;;20.24;46.95;99686.81;5027728;28;20418;-67
2021/05/10 05:06:37;;;;;;;7.65;1.55;;;;;;;20.34;46.83;99690.44;5026234;28;20385;-66
2021/05/10 05:09:03;;;;;;;6.93;1.33;;;;;;;20.36;46.95;99692.94;5027486;28;20491;-67
2021/05/10 05:11:29;;;;;;;13.68;1.48;;;;;;;20.29;46.66;99691.75;5029171;28;21333;-69
2021/05/10 05:13:55;;;;;;;9.50;1.70;;;;;;;20.34;46.21;99702.78;5027880;28;20050;-67
2021/05/10 05:16:21;;;;;;;9.48;1.85;;;;;;;20.28;46.80;99705.91;5027639;28;20045;-66
2021/05/10 05:18:47;;;;;;;9.63;1.65;;;;;;;20.38;47.03;99704.22;5019695;28;20061;-66
2021/05/10 05:21:14;;;;;;;5.90;1.20;;;;;;;20.40;47.05;99718.16;5024930;28;20041;-66
2021/05/10 05:23:40;;;;;;;15.20;1.92;;;;;;;20.41;46.74;99716.34;5028287;28;20100;-66
2021/05/10 05:26:06;;;;;;;7.90;1.45;;;;;;;20.56;46.75;99725.75;5030064;28;20425;-66
2021/05/10 05:28:33;;;;;;;5.05;1.10;;;;;;;20.54;47.05;99721.53;5030442;28;20081;-67
2021/05/10 05:31:00;;;;;;;8.95;1.58;;;;;;;20.59;47.31;99727.31;5023618;28;20057;-67
2021/05/10 05:33:27;;;;;;;12.23;1.90;;;;;;;20.70;46.40;99747.59;5023898;28;20057;-66
2021/05/10 05:35:53;;;;;;;9.10;1.40;;;;;;;20.66;46.62;99745.19;5027079;28;20100;-68
2021/05/10 05:38:20;;;;;;;17.02;1.83;;;;;;;20.66;46.60;99750.47;5028923;28;20048;-67
2021/05/10 05:40:47;;;;;;;8.23;1.67;;;;;;;20.61;47.01;99757.09;5026908;28;20073;-66
2021/05/10 05:43:13;;;;;;;6.50;1.40;;;;;;;20.59;46.48;99769.59;5028193;28;20049;-67
2021/05/10 05:45:41;;;;;;;6.43;1.60;;;;;;;20.51;47.11;99773.63;5027898;28;20076;-68
2021/05/10 05:48:09;;;;;;;8.07;1.35;;;;;;;20.48;47.38;99765.97;5023586;28;20046;-67
2021/05/10 05:50:36;;;;;;;6.70;1.33;;;;;;;20.48;47.09;99767.75;5025017;28;20057;-68
2021/05/10 05:53:04;;;;;;;10.30;1.60;;;;;;;20.46;47.38;99772.31;5021454;28;20084;-67
2021/05/10 05:55:32;;;;;;;4.50;1.85;;;;;;;20.38;48.48;99769.41;5018521;28;20526;-67
2021/05/10 05:57:58;;;;;;;8.40;1.65;;;;;;;20.36;48.89;99774.81;5026565;28;20037;-67
2021/05/10 06:00:25;;;;;;;16.00;1.83;;;;;;;20.35;48.69;99783.69;5023269;28;20100;-67
2021/05/10 06:02:51;;;;;;;8.85;1.60;;;;;;;20.39;48.74;99787.78;5020885;28;20053;-67
2021/05/10 06:05:17;;;;;;;8.80;1.65;;;;;;;20.56;48.52;99789.16;5024005;28;20395;-67
2021/05/10 06:07:44;;;;;;;12.18;2.10;;;;;;;20.66;48.52;99795.38;5023746;28;20046;-68
2021/05/10 06:10:13;;;;;;;9.68;1.58;;;;;;;20.87;48.03;99794.72;5025427;28;20049;-67
2021/05/10 06:12:41;;;;;;;9.52;1.70;;;;;;;20.85;48.36;99793.16;5023214;28;20160;-68
2021/05/10 06:15:08;;;;;;;11.25;2.17;;;;;;;20.97;48.04;99806.25;5024446;28;20123;-68
2021/05/10 06:17:35;;;;;;;10.50;1.77;;;;;;;20.87;47.99;99813.22;5024075;28;20049;-65
2021/05/10 06:20:03;;;;;;;10.68;1.90;;;;;;;20.82;47.87;99828.63;5021738;28;20487;-67
2021/05/10 06:22:29;;;;;;;8.77;1.20;;;;;;;20.87;47.87;99846.75;5020925;28;20046;-66
2021/05/10 06:24:55;;;;;;;10.95;2.10;;;;;;;20.76;48.35;99850.25;5027223;28;20049;-65
2021/05/10 06:27:21;;;;;;;10.73;1.70;;;;;;;20.79;48.51;99855.28;5022389;28;20049;-67
2021/05/10 06:29:48;;;;;;;10.27;1.63;;;;;;;20.79;48.77;99855.28;5018974;28;20057;-67
2021/05/10 06:32:14;;;;;;;7.95;1.40;;;;;;;20.81;48.49;99851.53;5021318;28;20061;-68
2021/05/10 06:34:40;;;;;;;8.73;1.27;;;;;;;20.71;48.87;99857.63;5028943;28;20609;-67
2021/05/10 06:37:06;;;;;;;7.45;1.55;;;;;;;20.69;48.47;99865.69;5026400;28;20461;-66
2021/05/10 06:39:32;;;;;;;3.95;1.45;;;;;;;20.67;49.15;99867.59;5023526;28;20089;-66
2021/05/10 06:41:58;;;;;;;7.47;1.40;;;;;;;20.74;49.08;99858.25;5020505;28;20137;-66
2021/05/10 06:44:24;;;;;;;9.88;2.55;;;;;;;20.90;48.70;99852.66;5027709;28;20426;-67
2021/05/10 06:46:51;;;;;;;11.50;1.58;;;;;;;20.96;48.17;99848.69;5023695;28;20128;-67
2021/05/10 06:49:17;;;;;;;5.05;1.15;;;;;;;20.98;49.23;99865.28;5022714;28;20061;-67
2021/05/10 06:51:42;;;;;;;5.25;1.27;;;;;;;21.29;48.38;99881.41;5028269;28;20053;-70
2021/05/10 06:54:09;;;;;;;6.45;1.77;;;;;;;21.44;48.29;99882.03;5024174;28;20072;-69
2021/05/10 06:56:34;;;;;;;6.88;1.55;;;;;;;21.52;47.72;99876.09;5021728;28;20064;-68
2021/05/10 06:59:00;;;;;;;8.40;1.98;;;;;;;21.61;47.67;99864.00;5023212;28;20220;-67
2021/05/10 07:01:26;;;;;;;6.20;2.35;;;;;;;21.82;47.90;99867.56;5020545;28;20049;-67
2021/05/10 07:03:53;;;;;;;5.20;1.63;;;;;;;22.16;46.23;99867.44;5025268;28;20049;-67
2021/05/10 07:06:20;;;;;;;5.43;1.63;;;;;;;22.40;46.49;99847.88;5021815;28;20053;-66
2021/05/10 07:08:46;;;;;;;6.38;1.90;;;;;;;22.81;46.41;99848.84;5026591;28;20045;-64
2021/05/10 07:11:12;;;;;;;11.07;2.22;;;;;;;23.24;44.78;99854.13;5020649;28;20073;-66
2021/05/10 07:13:38;;;;;;;6.00;1.52;;;;;;;23.46;43.90;99862.88;5022115;28;20050;-66
2021/05/10 07:16:04;;;;;;;5.07;1.77;;;;;;;23.43;43.12;99871.91;5018358;28;20064;-65
2021/05/10 07:18:30;;;;;;;9.02;1.20;;;;;;;23.31;42.89;99894.22;5020190;28;20060;-66
2021/05/10 07:20:57;;;;;;;7.07;1.23;;;;;;;22.78;42.68;99888.88;5018073;28;20128;-68
2021/05/10 07:23:23;;;;;;;4.15;0.90;;;;;;;22.16;44.07;99895.75;5022654;28;20046;-66
2021/05/10 07:25:49;;;;;;;3.63;1.40;;;;;;;21.97;43.89;99899.91;5018083;28;20064;-62
2021/05/10 07:28:17;;;;;;;5.40;1.15;;;;;;;21.74;44.94;99910.53;5020617;28;20080;-67
2021/05/10 07:30:44;;;;;;;5.85;1.25;;;;;;;21.49;44.95;99929.28;5017750;28;20045;-66
2021/05/10 07:33:10;;;;;;;6.45;1.17;;;;;;;21.34;45.96;99936.59;5020138;28;20045;-67
2021/05/10 07:35:37;;;;;;;3.90;1.00;;;;;;;21.13;46.92;99939.94;5021111;28;20054;-67
2021/05/10 07:38:04;;;;;;;7.13;0.95;;;;;;;20.88;48.12;99944.44;5024105;28;20478;-66
2021/05/10 07:40:31;;;;;;;5.35;1.02;;;;;;;20.68;48.56;99974.97;5024498;28;20057;-66
2021/05/10 07:42:58;;;;;;;3.40;0.80;;;;;;;20.34;49.81;99982.72;5015896;28;20503;-66
2021/05/10 07:45:24;;;;;;;3.55;0.93;;;;;;;20.17;50.23;99997.13;5024956;28;20054;-66
2021/05/10 07:47:52;;;;;;;4.53;0.80;;;;;;;20.04;50.18;99991.91;5023078;28;20400;-66
2021/05/10 07:50:19;;;;;;;5.38;0.80;;;;;;;20.04;50.65;99998.03;5014179;28;20487;-66
2021/05/10 07:52:45;;;;;;;2.83;1.15;;;;;;;20.13;50.81;99996.53;5021630;28;20045;-66
2021/05/10 07:55:12;;;;;;;3.95;1.00;;;;;;;20.22;50.91;99975.69;5026884;28;20052;-65
2021/05/10 07:57:38;;;;;;;5.47;0.85;;;;;;;20.33;49.99;99979.25;5021497;28;20063;-63
2021/05/10 08:00:09;;;;;;;2.17;0.63;;;;;;;20.39;49.89;99992.97;5018230;28;20491;-65
2021/05/10 08:02:36;;;;;;;2.72;0.73;;;;;;;20.50;50.25;100004.44;5014375;28;20053;-67
2021/05/10 08:05:02;;;;;;;2.40;0.93;;;;;;;20.60;50.52;100006.41;5023849;28;20072;-66
2021/05/10 08:07:28;;;;;;;1.67;0.70;;;;;;;20.75;49.43;100012.41;5022269;28;20061;-67
2021/05/10 08:09:54;;;;;;;5.43;0.68;;;;;;;20.89;49.71;100014.03;5018936;28;20049;-67
2021/05/10 08:12:21;;;;;;;2.97;0.60;;;;;;;20.99;49.65;100011.53;5020922;28;20113;-66
2021/05/10 08:14:47;;;;;;;4.90;0.68;;;;;;;20.91;49.29;100004.19;5027558;28;20052;-66
2021/05/10 08:17:13;;;;;;;3.40;0.77;;;;;;;21.03;49.48;100000.59;5021624;28;20049;-68
2021/05/10 08:19:39;;;;;;;2.17;0.50;;;;;;;21.17;48.92;100002.19;5016792;28;20147;-67
2021/05/10 08:22:05;;;;;;;1.52;0.57;;;;;;;21.07;49.43;100002.06;5017354;28;20042;-65
2021/05/10 08:24:32;;;;;;;6.60;1.27;;;;;;;21.08;48.85;100011.69;5020560;28;20057;-68
2021/05/10 08:26:58;;;;;;;5.75;0.60;;;;;;;21.12;48.36;100015.78;5023590;28;20064;-67
2021/05/10 08:29:25;;;;;;;2.47;0.60;;;;;;;21.07;48.25;100028.50;5019402;28;20488;-67
2021/05/10 08:31:51;;;;;;;2.92;0.70;;;;;;;20.96;49.03;100031.09;5022704;28;20576;-67
2021/05/10 08:34:18;;;;;;;1.27;0.40;;;;;;;20.89;49.12;100043.94;5020104;28;20049;-66
2021/05/10 08:36:45;;;;;;;1.90;0.50;;;;;;;21.05;49.13;100051.56;5022218;28;20147;-68
2021/05/10 08:39:12;;;;;;;6.78;1.13;;;;;;;21.13;48.97;100059.78;5022922;28;20049;-68
2021/05/10 08:41:38;;;;;;;1.38;0.55;;;;;;;21.35;48.22;100054.69;5024404;28;20530;-67
2021/05/10 08:44:05;;;;;;;1.65;0.50;;;;;;;21.52;46.92;100051.59;5018806;28;20050;-67
2021/05/10 08:46:32;;;;;;;2.15;0.50;;;;;;;21.74;46.30;100040.22;5015566;28;20082;-68
2021/05/10 08:48:59;;;;;;;2.38;0.70;;;;;;;21.89;46.54;100042.66;5017978;28;20103;-66
2021/05/10 08:51:26;;;;;;;2.55;0.50;;;;;;;21.94;45.33;100040.47;5021666;28;20099;-69
2021/05/10 08:53:52;;;;;;;1.73;0.40;;;;;;;21.64;46.49;100039.25;5020007;28;20356;-67
2021/05/10 08:56:18;;;;;;;3.50;0.40;;;;;;;21.73;45.85;100033.25;5023579;28;20176;-67
2021/05/10 08:58:47;;;;;;;2.25;0.60;;;;;;;21.52;46.51;100070.13;5021763;28;20049;-69
2021/05/10 09:01:14;;;;;;;2.00;0.70;;;;;;;21.37;46.16;100098.59;5022638;28;20470;-67
2021/05/10 09:03:44;;;;;;;4.10;0.70;;;;;;;21.31;46.14;100093.72;5023173;28;20417;-67
2021/05/10 09:06:12;;;;;;;4.05;0.52;;;;;;;20.96;46.92;100094.56;5025134;28;20140;-67
2021/05/10 09:08:40;;;;;;;3.42;0.47;;;;;;;20.60;48.30;100126.16;5029065;28;20045;-65
2021/05/10 09:11:08;;;;;;;2.75;0.80;;;;;;;20.37;49.39;100119.88;5026750;28;20050;-67
2021/05/10 09:13:41;;;;;;;5.05;0.90;;;;;;;20.62;47.96;100095.19;5028957;28;20045;-66
2021/05/10 09:16:08;;;;;;;3.90;0.60;;;;;;;20.32;49.69;100088.50;5022103;28;20060;-64
2021/05/10 09:18:35;;;;;;;4.40;0.95;;;;;;;20.42;48.53;100098.41;5028756;28;20110;-67
2021/05/10 09:21:13;;;;;;;3.53;1.05;;;;;;;20.29;49.24;100117.75;5026472;28;20046;-67
2021/05/10 09:23:39;;;;;;;4.30;1.20;;;;;;;20.18;49.88;100142.28;5029374;28;20045;-68
2021/05/10 09:26:06;;;;;;;3.03;0.60;;;;;;;20.38;49.02;100137.41;5022055;28;20065;-67
2021/05/10 09:28:38;;;;;;;1.77;0.60;;;;;;;20.44;49.59;100128.22;5024567;28;20435;-66
2021/05/10 09:31:06;;;;;;;2.95;0.77;;;;;;;20.57;48.98;100128.19;5023543;28;20459;-67
2021/05/10 09:33:33;;;;;;;2.45;0.98;;;;;;;20.70;48.80;100131.63;5027998;28;20089;-66
2021/05/10 09:36:03;;;;;;;2.60;0.77;;;;;;;20.77;48.48;100121.47;5022594;28;20112;-66
2021/05/10 09:38:30;;;;;;;2.13;0.70;;;;;;;20.69;48.45;100132.59;5024109;28;20128;-65
2021/05/10 09:40:58;;;;;;;3.38;0.75;;;;;;;20.50;48.87;100133.03;5023577;28;20434;-66
2021/05/10 09:43:25;;;;;;;4.55;0.93;;;;;;;20.64;48.77;100142.63;5031218;28;20045;-67
2021/05/10 09:45:52;;;;;;;2.00;0.60;;;;;;;20.93;48.33;100145.00;5025315;28;20151;-65
2021/05/10 09:48:21;;;;;;;1.35;0.63;;;;;;;21.05;48.04;100143.28;5026976;28;20053;-67
2021/05/10 09:50:49;;;;;;;3.00;0.70;;;;;;;20.87;48.04;100145.47;5027378;28;20491;-66
2021/05/10 09:53:21;;;;;;;4.18;0.70;;;;;;;20.81;48.75;100159.97;5022266;28;20041;-67
2021/05/10 09:55:52;;;;;;;6.05;0.70;;;;;;;20.90;48.61;100163.75;5020326;28;20553;-67
2021/05/10 09:58:20;;;;;;;4.47;0.82;;;;;;;21.13;48.02;100162.91;5023569;28;20052;-66
2021/05/10 10:00:46;;;;;;;3.75;0.88;;;;;;;21.04;47.89;100160.94;5024321;28;20054;-67
2021/05/10 10:03:29;;;;;;;3.80;1.05;;;;;;;21.25;47.77;100178.84;5027462;28;20046;-67
2021/05/10 10:05:57;;;;;;;2.95;0.70;;;;;;;21.39;48.08;100185.75;5025914;28;20049;-68
2021/05/10 10:08:23;;;;;;;3.13;0.85;;;;;;;21.53;47.72;100187.38;5027025;28;20539;-67
2021/05/10 10:10:51;;;;;;;2.63;0.80;;;;;;;21.34;48.06;100203.78;5023861;28;20075;-67
2021/05/10 10:13:17;;;;;;;1.67;0.68;;;;;;;21.46;47.03;100205.50;5021012;28;20406;-66
2021/05/10 10:15:44;;;;;;;3.13;0.90;;;;;;;21.36;46.47;100202.72;5019286;28;20041;-67
2021/05/10 10:18:11;;;;;;;4.78;1.15;;;;;;;21.02;48.32;100217.53;5020384;28;20042;-67
2021/05/10 10:20:38;;;;;;;5.65;1.00;;;;;;;20.87;47.43;100224.75;5026880;28;20411;-67
2021/05/10 10:23:06;;;;;;;3.63;0.90;;;;;;;20.52;49.38;100239.47;5024786;28;20092;-67
2021/05/10 10:25:33;;;;;;;4.50;0.82;;;;;;;20.39;49.64;100239.47;5025605;28;20053;-67
2021/05/10 10:28:01;;;;;;;4.57;0.95;;;;;;;20.05;51.31;100262.88;5019532;28;20060;-68
2021/05/10 10:30:27;;;;;;;2.60;0.70;;;;;;;19.92;51.07;100261.97;5018892;28;20383;-67
2021/05/10 10:32:59;;;;;;;11.18;1.08;;;;;;;19.91;51.73;100260.31;5026215;28;20041;-64
2021/05/10 10:35:25;;;;;;;16.35;1.63;;;;;;;19.58;54.22;100255.31;5023565;28;20192;-67
2021/05/10 10:37:52;;;;;;;3.47;0.70;;;;;;;19.56;53.66;100262.47;5025358;28;20045;-68
2021/05/10 10:40:21;;;;;;;3.03;0.90;;;;;;;19.62;54.26;100270.94;5020944;28;20517;-67
2021/05/10 10:42:47;;;;;;;4.90;1.13;;;;;;;19.68;53.86;100271.38;5020344;28;20053;-66
2021/05/10 10:45:22;;;;;;;4.82;1.33;;;;;;;19.45;54.67;100267.59;5022129;28;20049;-67
2021/05/10 10:47:53;;;;;;;2.55;1.05;;;;;;;19.69;54.55;100262.53;5026661;28;20140;-67
2021/05/10 10:50:20;;;;;;;2.70;0.90;;;;;;;20.08;52.81;100257.41;5023821;28;20407;-67
2021/05/10 10:52:51;;;;;;;3.25;0.90;;;;;;;20.33;52.76;100256.59;5022509;28;20049;-67
2021/05/10 10:55:20;;;;;;;3.13;1.08;;;;;;;20.65;51.53;100256.16;5024054;28;20423;-67
2021/05/10 10:57:47;;;;;;;3.88;1.00;;;;;;;20.84;50.82;100265.50;5023658;28;20072;-67
2021/05/10 11:00:17;;;;;;;2.38;1.00;;;;;;;20.80;51.41;100277.22;5022099;28;20145;-67
2021/05/10 11:02:45;;;;;;;5.75;1.10;;;;;;;20.79;50.92;100271.09;5019958;28;20117;-66
2021/05/10 11:05:13;;;;;;;3.20;1.02;;;;;;;20.89;51.75;100283.66;5023219;28;20061;-66
2021/05/10 11:08:01;;;;;;;1.75;0.90;;;;;;;20.81;52.09;100303.53;5020749;28;20049;-67
2021/05/10 11:10:41;;;;;;;2.92;1.00;;;;;;;21.20;50.91;100286.78;5018535;28;20466;-68
2021/05/10 11:13:07;;;;;;;3.38;0.98;;;;;;;21.37;50.95;100273.19;5021288;28;20056;-65
2021/05/10 11:15:47;;;;;;;2.47;1.10;;;;;;;21.40;50.78;100282.69;5024421;28;20045;-66
2021/05/10 11:18:47;;;;;;;3.63;1.30;;;;;;;22.03;49.70;100293.16;5019061;28;20149;-66
2021/05/10 11:21:39;;;;;;;2.78;1.23;;;;;;;22.21;47.70;100305.00;5016667;28;20048;-67
2021/05/10 11:24:10;;;;;;;1.98;0.88;;;;;;;21.93;47.98;100290.34;5022270;28;20053;-67
2021/05/10 11:26:38;;;;;;;2.70;1.10;;;;;;;21.52;47.97;100302.13;5024409;28;20045;-67
2021/05/10 11:29:05;;;;;;;2.88;1.20;;;;;;;21.31;49.72;100315.94;5018618;28;20046;-66
2021/05/10 11:31:35;;;;;;;5.82;1.20;;;;;;;21.25;49.05;100335.78;5018589;28;20692;-64
2021/05/10 11:34:07;;;;;;;3.10;1.20;;;;;;;20.68;50.16;100329.09;5024704;28;20426;-66
2021/05/10 11:36:35;;;;;;;3.40;1.15;;;;;;;20.16;52.08;100349.31;5019994;28;20060;-67
2021/05/10 11:39:04;;;;;;;3.50;0.98;;;;;;;19.70;52.82;100345.19;5022696;28;20049;-67